x

Halibut Bank (46146) Wave Buoy

5:00am - Mon 27th Apr 2015 All times are PDT. -7 hours from GMT.

  • Sig Wave height 2.0ft
  • Peak Period 3s
  • Wind
    18mph, 22mph gusts
  • Sea Temp 52°f
  • Air Temp 50°f
  • Sea Pressure 1023.5mb
  • Halibut Bank
  • Halibut Bank

More Historic Weather Station data

Upgrade to MSW Pro to gain access to the past 30 days of data for over 8000 Wavebouys and Weather Stations around the globe.

Join Pro

Comparision Forecast

View Surf forecast
   
Mon 04/27 5:00am 2ft 3s 18 22 mph 1023.5mb 52f 50f
4:00am 1.6ft 3s 18 22 mph 1023.5mb 52f 51f
3:00am 1.6ft 3s 18 20 mph 1023.4mb 52f 52f
2:00am 1.6ft 3s 18 20 mph 1023.4mb 52f 53f
1:00am 1.6ft 3s 16 20 mph 1023.6mb 52f 53f
12:00am 1.6ft 3s 20 22 mph 1023.3mb 52f 53f
Sun 04/26 11:00pm 1.6ft 3s 18 22 mph 1023.3mb 52f 53f
10:00pm 1.6ft 3s 20 25 mph 1023.3mb 52f 53f
9:00pm 1ft 2s 18 22 mph 1023.2mb 52f 54f
8:00pm 0.3ft 3s 13 18 mph 1022.8mb 52f 55f
7:00pm 0.7ft 4s 7
mph
1022.8mb 52f 52f
6:00pm 0.7ft 2s 9
mph
1022.8mb 52f 52f
5:00pm 1ft 2s 9 11 mph 1023.1mb 51f 52f
4:00pm 1ft 3s 11 13 mph 1023mb 51f 52f
3:00pm 1ft 3s 11 13 mph 1023.2mb 51f 52f
2:00pm 1.3ft 3s 13 16 mph 1023.1mb 51f 52f
1:00pm 1.3ft 3s 13 16 mph 1022.9mb 51f 51f
12:00pm 1.3ft 3s 16 18 mph 1022.8mb 51f 50f
11:00am 1.6ft 3s 16 18 mph 1022.8mb 51f 50f
10:00am 1.6ft 3s 16 18 mph 1022.2mb 51f 50f
9:00am 2.5ft 4s 16 20 mph 1022.2mb 52f 49f
8:00am 2.5ft 3s 18 22 mph 1021.3mb 52f 50f
7:00am 2.5ft 4s 20 25 mph 1020.5mb 52f 49f
6:00am 2ft 3s 20 25 mph 1019.8mb 52f 49f
5:00am 2ft 3s 18 20 mph 1019.6mb 52f 49f
4:00am 1.6ft 3s 16 18 mph 1019.2mb 52f 49f
3:00am 1.6ft 3s 18 22 mph 1018.8mb 52f 49f
2:00am 1.3ft 3s 16 18 mph 1018.6mb 53f 50f
1:00am 1.3ft 3s 16 18 mph 1018.2mb 53f 50f
12:00am 1ft 2s 16 18 mph 1017.8mb 52f 50f
Sat 04/25 11:00pm 1ft 2s 13 16 mph 1017.6mb 53f 51f
10:00pm 0.7ft 2s 13 18 mph 1017.4mb 53f 51f
9:00pm 0.7ft 2s 11 13 mph 1017.1mb 53f 52f
8:00pm 0.3ft 14s 11 13 mph 1016.9mb 54f 52f
7:00pm 0.3ft 6s 9 11 mph 1016.7mb 56f 53f
6:00pm 0.3ft 4s 7 9 mph 1016.5mb 55f 52f
5:00pm 0.3ft 7s 4 7 mph 1016.3mb 56f 51f
4:00pm 0.3ft 7s 2 4 mph 1016.5mb 55f 51f
3:00pm 0.3ft 2s  -  2 mph 1016.5mb 55f 51f
2:00pm 0.3ft 6s 4 7 mph 1016.4mb 56f 49f
1:00pm 0.3ft 2s  -  mph 1016.1mb 55f 51f
12:00pm 0.3ft 2s 4 7 mph 1016.1mb 54f 47f
11:00am 0.3ft 2s 4 7 mph 1015.9mb 52f 47f
10:00am 0.7ft 4s 2 4 mph 1015.4mb 51f 47f
9:00am 0.3ft 2s  -  2 mph 1015.1mb 50f 46f
8:00am 0.7ft 6s  -  2 mph 1014.6mb 51f 45f
7:00am 0.7ft 3s 2 4 mph 1014.1mb 51f 45f
6:00am 0.7ft 2s 2 4 mph 1013.5mb 51f 44f
5:00am 0.7ft 3s 4
mph
1013.1mb 50f 45f
4:00am 0.7ft 3s 4 7 mph 1012.9mb 50f 44f
3:00am 1ft 3s  -  4 mph 1012.5mb 51f 44f
2:00am 1ft 3s 4 9 mph 1012.3mb 50f 44f
1:00am 0.7ft 3s 2 9 mph 1011.8mb 51f 44f
12:00am 0.7ft 2s 13
mph
1011.3mb 51f 45f
Fri 04/24 11:00pm 1ft 2s 7 11 mph 1011.1mb 51f 46f
10:00pm 0.7ft 2s 11 13 mph 1010.8mb 51f 47f
9:00pm 0.7ft 2s 9 13 mph 1010.7mb 51f 47f
8:00pm 1ft 2s 11 13 mph 1010.3mb 51f 47f
7:00pm 1ft 3s 13
mph
1010mb 51f 47f
6:00pm 1ft 3s 9 11 mph 1009.6mb 51f 48f
5:00pm 1.3ft 4s 7
mph
1009.5mb 51f 46f
4:00pm 1.6ft 4s 7 9 mph 1009.5mb 51f 47f
3:00pm 1.3ft 3s 11 16 mph 1009.1mb 51f 47f
2:00pm 1.3ft 3s 13 16 mph 1008.6mb 51f 48f
1:00pm 1ft 3s 13 16 mph 1008.4mb 51f 47f
12:00pm 1.3ft 3s 13 16 mph 1008.2mb 52f 46f
11:00am 1.3ft 3s 11 13 mph 1008mb 51f 47f
10:00am 1.6ft 3s 13 18 mph 1007.6mb 51f 45f
9:00am 1.3ft 3s 16 20 mph 1007.3mb 51f 45f
8:00am 1.6ft 3s 13 18 mph 1006.9mb 51f 44f
7:00am 1.3ft 3s 13 18 mph 1006.6mb 51f 43f
6:00am 2ft 3s 13 18 mph 1006.1mb 51f 43f
5:00am 2ft 3s 18 20 mph 1006mb 51f 43f
4:00am 2ft 3s 16 20 mph 1006mb 51f 45f
3:00am 1.6ft 3s 18 22 mph 1006mb 51f 46f
2:00am 1ft 3s 13 16 mph 1006mb 51f 47f
1:00am 1ft 3s 11 18 mph 1006.2mb 51f 48f
12:00am 1ft 2s 9
mph
1006.2mb 51f 49f
Thu 04/23 11:00pm 1ft 3s 9 11 mph 1006.4mb 51f 49f
10:00pm 1ft 4s 2 4 mph 1006.5mb 51f 48f
9:00pm 1.6ft 4s 11 13 mph 1006.3mb 51f 50f
8:00pm 2ft 4s 7 9 mph 1005.9mb 51f 50f
7:00pm 3.5ft 4s 7 13 mph 1005.9mb 52f 51f
6:00pm 3.5ft 4s 16 25 mph 1005.9mb 51f 48f
5:00pm 4ft 5s 25 29 mph 1006mb 51f 48f
4:00pm 4ft 5s 25 29 mph 1006.5mb 51f 47f
3:00pm 3.5ft 5s 25 29 mph 1007.1mb 51f 47f
2:00pm 4ft 5s 27 31 mph 1008mb 52f 46f